createdAt,value
2023-12-04T00:02:26.073Z,-1.40
2023-12-04T00:05:28.970Z,-1.30
2023-12-04T00:08:31.142Z,-1.20
2023-12-04T00:11:33.342Z,-1.50
2023-12-04T00:14:35.540Z,-1.50
2023-12-04T00:17:38.096Z,-1.50
2023-12-04T00:20:40.177Z,-1.10
2023-12-04T00:23:42.311Z,-1.10
2023-12-04T00:26:44.405Z,-1.50
2023-12-04T00:29:46.481Z,-1.30
2023-12-04T00:32:48.685Z,-1.70
2023-12-04T00:35:50.778Z,-1.60
2023-12-04T00:38:52.973Z,-1.90
2023-12-04T00:41:55.076Z,-1.50
2023-12-04T00:44:57.239Z,-1.40
2023-12-04T00:47:59.504Z,-1.50
2023-12-04T00:51:04.356Z,-1.50
2023-12-04T00:54:06.622Z,-1.60
2023-12-04T00:57:09.712Z,-1.40
2023-12-04T01:00:12.418Z,-1.60
2023-12-04T01:03:14.752Z,-1.60
2023-12-04T01:06:25.834Z,-1.50
2023-12-04T01:09:28.124Z,-1.70
2023-12-04T01:12:30.210Z,-1.60
2023-12-04T01:15:32.556Z,-1.50
2023-12-04T01:18:34.846Z,-1.50
2023-12-04T01:21:37.200Z,-1.70
2023-12-04T01:24:39.369Z,-1.60
2023-12-04T01:27:41.479Z,-1.40
2023-12-04T01:30:43.736Z,-1.60
2023-12-04T01:33:45.915Z,-1.40
2023-12-04T01:36:48.029Z,-1.60
2023-12-04T01:39:52.389Z,-1.70
2023-12-04T01:42:54.601Z,-1.40
2023-12-04T01:45:57.391Z,-1.50
2023-12-04T01:49:00.627Z,-1.90
2023-12-04T01:52:03.991Z,-1.80
2023-12-04T01:55:08.589Z,-1.60
2023-12-04T01:58:11.371Z,-1.90
2023-12-04T02:01:13.583Z,-2.10
2023-12-04T02:04:15.822Z,-1.90
2023-12-04T02:07:18.121Z,-1.70
2023-12-04T02:10:20.773Z,-1.80
2023-12-04T02:13:23.160Z,-1.80
2023-12-04T02:16:28.486Z,-1.90
2023-12-04T02:19:30.955Z,-2.00
2023-12-04T02:22:33.680Z,-1.80
2023-12-04T02:25:37.721Z,-2.00
2023-12-04T02:28:41.024Z,-1.90
2023-12-04T02:31:44.534Z,-1.80
2023-12-04T02:34:49.002Z,-1.90
2023-12-04T02:37:51.917Z,-1.90
2023-12-04T02:40:54.353Z,-1.80
2023-12-04T02:43:56.447Z,-1.90
2023-12-04T02:46:58.751Z,-2.00
2023-12-04T02:50:03.544Z,-2.10
2023-12-04T02:53:05.623Z,-1.70
2023-12-04T02:56:08.127Z,-1.70
2023-12-04T02:59:10.538Z,-1.80
2023-12-04T03:02:12.694Z,-1.80
2023-12-04T03:05:14.888Z,-1.70
2023-12-04T03:08:17.002Z,-2.00
2023-12-04T03:11:19.198Z,-2.00
2023-12-04T03:14:21.317Z,-2.10
2023-12-04T03:17:23.472Z,-1.80
2023-12-04T03:20:25.622Z,-1.80
2023-12-04T03:23:27.735Z,-1.90
2023-12-04T03:26:29.877Z,-1.90
2023-12-04T03:29:32.569Z,-1.80
2023-12-04T03:32:34.676Z,-1.90
2023-12-04T03:35:36.957Z,-1.90
2023-12-04T03:38:39.130Z,-1.90
2023-12-04T03:41:41.280Z,-1.80
2023-12-04T03:44:43.448Z,-1.80
2023-12-04T03:47:45.566Z,-1.80
2023-12-04T03:50:47.858Z,-1.60
2023-12-04T03:53:52.483Z,-1.30
2023-12-04T03:56:54.654Z,-1.50
2023-12-04T03:59:56.785Z,-1.40
2023-12-04T04:02:58.929Z,-1.50
2023-12-04T04:06:01.100Z,-1.30
2023-12-04T04:09:03.306Z,-1.50
2023-12-04T04:12:05.763Z,-1.40
2023-12-04T04:15:08.460Z,-1.60
2023-12-04T04:18:10.701Z,-1.50
2023-12-04T04:21:15.341Z,-1.30
2023-12-04T04:24:17.974Z,-1.50
2023-12-04T04:27:20.078Z,-1.50
2023-12-04T04:30:24.334Z,-1.20
2023-12-04T04:33:26.412Z,-1.80
2023-12-04T04:36:28.991Z,-2.20
2023-12-04T04:39:31.058Z,-2.00
2023-12-04T04:42:33.245Z,-1.70
2023-12-04T04:45:35.423Z,-1.60
2023-12-04T04:48:38.225Z,-1.60
2023-12-04T04:51:40.548Z,-1.50
2023-12-04T04:54:42.663Z,-1.60
2023-12-04T04:57:44.783Z,-1.50
2023-12-04T05:00:47.999Z,-1.40
2023-12-04T05:03:50.277Z,-1.40
2023-12-04T05:06:52.660Z,-1.20
2023-12-04T05:09:54.816Z,-1.30
2023-12-04T05:12:56.995Z,-1.30
2023-12-04T05:15:59.120Z,-1.20
2023-12-04T05:19:01.203Z,-1.10
2023-12-04T05:22:03.544Z,-1.20
2023-12-04T05:25:06.263Z,-1.50
2023-12-04T05:28:08.390Z,-1.60
2023-12-04T05:31:10.411Z,-1.50
2023-12-04T05:34:12.618Z,-1.60
2023-12-04T05:37:14.771Z,-1.30
2023-12-04T05:40:16.967Z,-1.50
2023-12-04T05:43:19.237Z,-1.40
2023-12-04T05:46:21.447Z,-1.30
2023-12-04T05:49:24.874Z,-1.70
2023-12-04T05:52:28.286Z,-1.60
2023-12-04T05:55:30.846Z,-1.60
2023-12-04T05:58:33.427Z,-1.70
2023-12-04T06:01:36.040Z,-1.80
2023-12-04T06:04:38.085Z,-1.60
2023-12-04T06:07:40.432Z,-1.80
2023-12-04T06:10:42.506Z,-1.60
2023-12-04T06:13:44.538Z,-1.60
2023-12-04T06:16:46.541Z,-1.70
2023-12-04T06:19:48.620Z,-1.80
2023-12-04T06:22:51.159Z,-1.80
2023-12-04T06:25:53.425Z,-1.50
2023-12-04T06:28:55.714Z,-1.60
2023-12-04T06:31:58.009Z,-2.00
2023-12-04T06:35:00.359Z,-2.10
2023-12-04T06:38:09.714Z,-2.10
2023-12-04T06:41:12.657Z,-2.10
2023-12-04T06:44:15.026Z,-1.90
2023-12-04T06:47:19.406Z,-2.10
2023-12-04T06:50:21.701Z,-1.90
2023-12-04T06:53:23.805Z,-1.60
2023-12-04T06:56:25.857Z,-1.80
2023-12-04T06:59:30.148Z,-1.40
2023-12-04T07:02:32.205Z,-1.60
2023-12-04T07:05:34.238Z,-1.60
2023-12-04T07:08:36.222Z,-1.70
2023-12-04T07:11:38.562Z,-1.60
2023-12-04T07:14:40.620Z,-1.50
2023-12-04T07:17:42.727Z,-1.50
2023-12-04T07:20:44.734Z,-1.10
2023-12-04T07:23:46.801Z,-0.90
2023-12-04T07:26:49.027Z,-0.90
2023-12-04T07:29:51.256Z,-1.10
2023-12-04T07:32:53.327Z,-1.00
2023-12-04T07:35:55.352Z,-1.00
2023-12-04T07:38:57.437Z,-0.80
2023-12-04T07:42:11.972Z,-0.50
2023-12-04T07:45:15.530Z,-0.50
2023-12-04T07:48:17.668Z,-0.50
2023-12-04T07:51:19.706Z,-0.60
2023-12-04T07:54:21.683Z,-0.70
2023-12-04T07:57:24.164Z,-0.50
2023-12-04T08:00:26.188Z,-0.70
2023-12-04T08:03:28.860Z,-0.70
2023-12-04T08:06:30.968Z,-0.80
2023-12-04T08:09:33.304Z,-0.40
2023-12-04T08:12:35.795Z,-0.50
2023-12-04T08:15:38.005Z,-0.40
2023-12-04T08:18:40.127Z,-0.50
2023-12-04T08:21:45.250Z,-0.40
2023-12-04T08:24:47.348Z,-0.20
2023-12-04T08:27:51.683Z,-0.30
2023-12-04T08:30:53.743Z,-0.30
2023-12-04T08:33:55.874Z,-0.40
2023-12-04T08:36:58.072Z,-0.20
2023-12-04T08:40:00.369Z,-0.30
2023-12-04T08:43:02.550Z,-0.10
2023-12-04T08:46:05.174Z,-0.30
2023-12-04T08:49:07.787Z,-0.30
2023-12-04T08:52:09.973Z,-0.10
2023-12-04T08:55:12.325Z,-0.10
2023-12-04T08:58:14.465Z,-0.10
2023-12-04T09:01:16.525Z,-0.20
2023-12-04T09:04:18.721Z,-0.10
2023-12-04T09:10:37.036Z,0.00
2023-12-04T09:13:47.746Z,0.10
2023-12-04T09:16:49.726Z,0.40
2023-12-04T09:19:54.286Z,0.20
2023-12-04T09:23:04.099Z,0.30
2023-12-04T09:26:08.891Z,0.30
2023-12-04T09:29:13.045Z,0.50
2023-12-04T09:32:15.151Z,0.40
2023-12-04T09:35:17.298Z,0.50
2023-12-04T09:38:19.407Z,0.50
2023-12-04T09:41:22.565Z,0.50
2023-12-04T09:44:26.290Z,0.40
2023-12-04T09:47:28.666Z,0.40
2023-12-04T09:50:31.207Z,0.50
2023-12-04T09:53:34.517Z,0.50
2023-12-04T09:56:37.625Z,0.60
2023-12-04T09:59:40.031Z,0.90
2023-12-04T10:02:42.807Z,0.90
2023-12-04T10:05:45.697Z,1.00
2023-12-04T10:08:47.923Z,1.00
2023-12-04T10:11:52.048Z,1.00
2023-12-04T10:15:08.400Z,1.00
2023-12-04T10:18:29.017Z,1.00
2023-12-04T10:21:34.587Z,1.00
2023-12-04T10:24:38.244Z,0.80
2023-12-04T10:27:40.354Z,0.90
2023-12-04T10:30:42.596Z,0.90
2023-12-04T10:33:44.800Z,1.00
2023-12-04T10:36:47.866Z,0.90
2023-12-04T10:39:53.174Z,0.80
2023-12-04T10:43:12.302Z,0.90
2023-12-04T10:46:16.063Z,0.80
2023-12-04T10:49:18.322Z,0.80
2023-12-04T10:52:20.823Z,1.00
2023-12-04T10:55:23.011Z,1.10
2023-12-04T10:58:27.976Z,1.00
2023-12-04T11:01:32.746Z,1.20
2023-12-04T11:04:35.773Z,1.10
2023-12-04T11:08:12.631Z,1.20
2023-12-04T11:11:02.854Z,1.20
2023-12-04T11:14:09.684Z,1.10
2023-12-04T11:17:15.413Z,1.20
2023-12-04T11:20:19.987Z,1.40
2023-12-04T11:23:22.631Z,1.40
2023-12-04T11:26:25.030Z,1.40
2023-12-04T11:29:27.832Z,1.40
2023-12-04T11:32:30.504Z,1.20
2023-12-04T11:35:35.066Z,1.40
2023-12-04T11:38:37.812Z,1.50
2023-12-04T11:41:42.306Z,1.40
2023-12-04T11:44:44.329Z,1.30
2023-12-04T11:47:55.205Z,1.40
2023-12-04T12:03:22.669Z,2.00
2023-12-04T12:06:25.929Z,2.10
2023-12-04T12:09:29.774Z,2.20
2023-12-04T12:12:32.793Z,2.00
2023-12-04T12:15:35.452Z,2.00
2023-12-04T12:18:37.856Z,2.10
2023-12-04T12:21:40.104Z,2.00
2023-12-04T12:24:42.219Z,1.90
2023-12-04T12:27:44.607Z,1.90
2023-12-04T12:30:46.769Z,1.90
2023-12-04T12:33:49.026Z,2.00
2023-12-04T12:36:51.187Z,2.00
2023-12-04T12:39:53.546Z,1.70
2023-12-04T12:43:08.646Z,1.90
2023-12-04T12:46:12.100Z,1.90
2023-12-04T12:49:25.560Z,1.80
2023-12-04T12:52:31.282Z,1.80
2023-12-04T12:55:33.316Z,1.90
2023-12-04T12:58:35.979Z,1.90
2023-12-04T13:01:38.773Z,2.00
2023-12-04T13:04:45.500Z,2.00
2023-12-04T13:07:47.789Z,1.90
2023-12-04T13:10:50.098Z,1.90
2023-12-04T13:13:52.314Z,2.00
2023-12-04T13:16:54.677Z,1.90
2023-12-04T13:19:57.424Z,2.00
2023-12-04T13:22:59.438Z,1.90
2023-12-04T13:26:01.451Z,2.00
2023-12-04T13:29:04.625Z,2.00
2023-12-04T13:32:07.163Z,1.90
2023-12-04T13:35:09.750Z,1.90
2023-12-04T13:38:15.292Z,1.90
2023-12-04T13:41:17.542Z,1.90
2023-12-04T13:44:19.584Z,1.90
2023-12-04T13:47:21.593Z,1.90
2023-12-04T13:50:23.565Z,1.90
2023-12-04T13:53:25.548Z,2.10
2023-12-04T13:56:27.606Z,2.00
2023-12-04T13:59:29.751Z,2.10
2023-12-04T14:02:31.964Z,2.00
2023-12-04T14:05:35.525Z,2.00
2023-12-04T14:08:38.564Z,2.00
2023-12-04T14:11:41.018Z,2.00
2023-12-04T14:14:43.254Z,2.00
2023-12-04T14:17:45.941Z,2.20
2023-12-04T14:20:48.177Z,2.20
2023-12-04T14:23:52.383Z,2.10
2023-12-04T14:26:54.444Z,2.10
2023-12-04T14:29:58.440Z,2.20
2023-12-04T14:33:01.777Z,2.10
2023-12-04T14:36:04.144Z,2.10
2023-12-04T14:39:07.250Z,2.10
2023-12-04T14:42:09.307Z,2.10
2023-12-04T14:45:11.631Z,2.10
2023-12-04T14:48:13.822Z,2.20
2023-12-04T14:51:16.025Z,2.10
2023-12-04T14:54:18.261Z,2.30
2023-12-04T14:57:20.475Z,2.30
2023-12-04T15:00:22.628Z,2.40
2023-12-04T15:03:24.794Z,2.40
2023-12-04T15:06:27.191Z,2.20
2023-12-04T15:09:29.503Z,2.30
2023-12-04T15:12:31.922Z,2.20
2023-12-04T15:15:34.217Z,2.40
2023-12-04T15:18:36.590Z,2.20
2023-12-04T15:21:39.322Z,2.30
2023-12-04T15:24:41.546Z,2.30
2023-12-04T15:27:45.355Z,2.40
2023-12-04T15:30:47.676Z,2.40
2023-12-04T15:33:50.081Z,2.40
2023-12-04T15:36:52.200Z,2.40
2023-12-04T15:39:56.938Z,2.30
2023-12-04T15:42:59.120Z,2.40
2023-12-04T15:46:01.895Z,2.30
2023-12-04T15:49:04.455Z,2.40
2023-12-04T15:52:07.086Z,2.40
2023-12-04T15:55:09.733Z,2.40
2023-12-04T15:58:12.630Z,2.40
2023-12-04T16:01:15.299Z,2.30
2023-12-04T16:04:17.905Z,2.40
2023-12-04T16:07:20.384Z,2.40
2023-12-04T16:10:22.454Z,2.40
2023-12-04T16:13:24.490Z,2.40
2023-12-04T16:16:26.530Z,2.40
2023-12-04T16:19:28.700Z,2.40
2023-12-04T16:22:31.291Z,2.40
2023-12-04T16:25:33.350Z,2.40
2023-12-04T16:28:37.826Z,2.40
2023-12-04T16:31:39.880Z,2.40
2023-12-04T16:34:44.481Z,2.40
2023-12-04T16:37:46.554Z,2.40
2023-12-04T16:40:48.552Z,2.40
2023-12-04T16:43:50.611Z,2.40
2023-12-04T16:46:52.631Z,2.40
2023-12-04T16:49:54.924Z,2.40
2023-12-04T16:52:57.175Z,2.50
2023-12-04T16:56:00.445Z,2.40
2023-12-04T16:59:02.725Z,2.40
2023-12-04T17:02:05.412Z,2.40
2023-12-04T17:05:09.324Z,2.40
2023-12-04T17:08:11.638Z,2.40
2023-12-04T17:11:14.740Z,2.50
2023-12-04T17:14:16.906Z,2.50
2023-12-04T17:17:19.343Z,2.50
2023-12-04T17:20:21.840Z,2.60
2023-12-04T17:23:24.371Z,2.60
2023-12-04T17:26:26.911Z,2.50
2023-12-04T17:29:29.059Z,2.50
2023-12-04T17:32:31.435Z,2.40
2023-12-04T17:35:33.704Z,2.60
2023-12-04T17:38:35.919Z,2.50
2023-12-04T17:41:38.375Z,2.40
2023-12-04T17:44:40.515Z,2.40
2023-12-04T17:47:42.559Z,2.50
2023-12-04T17:50:45.042Z,2.50
2023-12-04T17:53:47.755Z,2.40
2023-12-04T17:56:49.945Z,2.50
2023-12-04T17:59:55.590Z,2.50
2023-12-04T18:02:57.989Z,2.40
2023-12-04T18:06:01.320Z,2.50
2023-12-04T18:09:04.347Z,2.50
2023-12-04T18:12:08.232Z,2.40
2023-12-04T18:15:10.803Z,2.40
2023-12-04T18:18:13.572Z,2.40
2023-12-04T18:21:15.891Z,2.30
2023-12-04T18:24:18.055Z,2.30
2023-12-04T18:27:20.473Z,2.40
2023-12-04T18:30:22.958Z,2.30
2023-12-04T18:33:25.407Z,2.30
2023-12-04T18:36:39.682Z,2.30
2023-12-04T18:39:43.668Z,2.40
2023-12-04T18:42:46.117Z,2.40
2023-12-04T18:45:48.666Z,2.20
2023-12-04T18:48:51.616Z,2.20
2023-12-04T18:51:54.103Z,2.10
2023-12-04T18:54:56.920Z,2.30
2023-12-04T18:57:59.102Z,2.10
2023-12-04T19:01:01.302Z,2.20
2023-12-04T19:04:03.731Z,2.30
2023-12-04T19:07:06.022Z,2.30
2023-12-04T19:10:08.633Z,2.40
2023-12-04T19:13:14.212Z,2.40
2023-12-04T19:16:16.861Z,2.40
2023-12-04T19:19:19.148Z,2.40
2023-12-04T19:22:23.641Z,2.40
2023-12-04T19:25:29.867Z,2.50
2023-12-04T19:28:35.745Z,2.40
2023-12-04T19:31:38.173Z,2.40
2023-12-04T19:34:43.487Z,2.40
2023-12-04T19:37:45.799Z,2.40
2023-12-04T19:40:48.589Z,2.50
2023-12-04T19:43:50.690Z,2.50
2023-12-04T19:46:52.954Z,2.60
2023-12-04T19:49:55.053Z,2.50
2023-12-04T19:52:57.224Z,2.60
2023-12-04T19:55:59.346Z,2.70
2023-12-04T19:59:01.545Z,2.70
2023-12-04T20:02:04.481Z,2.60
2023-12-04T20:05:07.202Z,2.50
2023-12-04T20:08:10.592Z,2.50
2023-12-04T20:11:12.833Z,2.40
2023-12-04T20:14:14.878Z,2.30
2023-12-04T20:17:17.130Z,2.40
2023-12-04T20:20:19.453Z,2.50
2023-12-04T20:23:21.478Z,2.50
2023-12-04T20:26:23.542Z,2.40
2023-12-04T20:29:25.669Z,2.20
2023-12-04T20:32:27.853Z,2.20
2023-12-04T20:35:30.605Z,2.20
2023-12-04T20:38:33.342Z,2.10
2023-12-04T20:41:35.588Z,2.20
2023-12-04T20:44:37.670Z,2.40
2023-12-04T20:47:39.831Z,2.40
2023-12-04T20:50:41.956Z,2.40
2023-12-04T20:53:44.536Z,2.40
2023-12-04T20:56:46.676Z,2.40
2023-12-04T20:59:48.763Z,2.50
2023-12-04T21:02:51.749Z,2.50
2023-12-04T21:05:53.881Z,2.50
2023-12-04T21:08:56.537Z,2.50
2023-12-04T21:11:58.797Z,2.50
2023-12-04T21:15:00.983Z,2.50
2023-12-04T21:18:03.474Z,2.50
2023-12-04T21:21:05.960Z,2.60
2023-12-04T21:24:08.261Z,2.50
2023-12-04T21:27:10.379Z,2.50
2023-12-04T21:30:13.801Z,2.40
2023-12-04T21:33:18.546Z,2.50
2023-12-04T21:36:20.790Z,2.50
2023-12-04T21:39:23.071Z,2.60
2023-12-04T21:42:25.263Z,2.50
2023-12-04T21:45:27.595Z,2.60
2023-12-04T21:48:30.056Z,2.50
2023-12-04T21:51:32.561Z,2.60
2023-12-04T21:54:34.740Z,2.50
2023-12-04T21:57:36.946Z,2.60
2023-12-04T22:00:38.997Z,2.60
2023-12-04T22:03:41.304Z,2.70
2023-12-04T22:06:43.662Z,2.60
2023-12-04T22:09:45.846Z,2.70
2023-12-04T22:12:48.031Z,2.60
2023-12-04T22:15:51.508Z,2.70
2023-12-04T22:18:53.998Z,2.70
2023-12-04T22:21:59.736Z,2.80
2023-12-04T22:25:01.909Z,2.80
2023-12-04T22:28:04.245Z,2.70
2023-12-04T22:31:06.536Z,2.80
2023-12-04T22:34:09.336Z,2.90
2023-12-04T22:37:15.461Z,2.80
2023-12-04T22:40:18.238Z,2.80
2023-12-04T22:43:20.286Z,2.80
2023-12-04T22:46:22.448Z,2.80
2023-12-04T22:49:34.872Z,2.60
2023-12-04T22:52:42.360Z,2.40
2023-12-04T22:55:44.372Z,2.30
2023-12-04T22:58:46.381Z,2.50
2023-12-04T23:01:48.378Z,2.50
2023-12-04T23:04:50.655Z,2.60
2023-12-04T23:07:52.812Z,2.50
2023-12-04T23:10:54.847Z,2.60
2023-12-04T23:13:57.291Z,2.70
2023-12-04T23:17:00.182Z,2.70
2023-12-04T23:20:02.698Z,2.80
2023-12-04T23:23:04.693Z,2.70
2023-12-04T23:26:07.024Z,2.90
2023-12-04T23:29:09.275Z,2.80
2023-12-04T23:32:11.517Z,2.80
2023-12-04T23:35:13.514Z,2.80
2023-12-04T23:38:15.503Z,2.70
2023-12-04T23:41:17.557Z,2.80
2023-12-04T23:44:19.566Z,2.80
2023-12-04T23:47:21.546Z,2.70
2023-12-04T23:50:23.607Z,2.40
2023-12-04T23:53:25.601Z,2.70
2023-12-04T23:56:27.685Z,2.60
2023-12-04T23:59:29.689Z,2.70
